Ecuador Ama la vida
Dirección General de Aviación Civil
IFIS
Sábado 21 de Julio del 2018
Buscar por aerodromo o helipuerto
Ingrese nombre de aeródromo, localidad o designador OACI:

Buscar por Fir

METAR del 21-07-2018 a las 09:00 UTC
SEQM 210900Z 09002KT 9999 FEW030 08/08 Q1024 NOSIG RMK A3025=
Viento: dirección 090 grados, velocidad 2 nudos
Visibilidad reinante: 10 km o más
Nubes: Escasas a 3000 pies sobre el nivel del terreno
Temperatura: 8 °C
Rocío: 8 °C
Humedad_relativa: 100%
Presión: 1024 hPa
No se esperan cambios significativos en las próximas 2 horas
Información adicional:
Qnh: 30.25 inHg
METAR del 21-07-2018 a las 08:00 UTC
SEQM 210800Z 06002KT 9999 FEW030 08/08 Q1024 NOSIG RMK A3025=
Viento: dirección 060 grados, velocidad 2 nudos
Visibilidad reinante: 10 km o más
Nubes: Escasas a 3000 pies sobre el nivel del terreno
Temperatura: 8 °C
Rocío: 8 °C
Humedad_relativa: 100%
Presión: 1024 hPa
No se esperan cambios significativos en las próximas 2 horas
Información adicional:
Qnh: 30.25 inHg
METAR del 21-07-2018 a las 07:00 UTC
SEQM 210700Z 10002KT 9999 FEW030 08/08 Q1025 NOSIG RMK A3026=
Viento: dirección 100 grados, velocidad 2 nudos
Visibilidad reinante: 10 km o más
Nubes: Escasas a 3000 pies sobre el nivel del terreno
Temperatura: 8 °C
Rocío: 8 °C
Humedad_relativa: 100%
Presión: 1025 hPa
No se esperan cambios significativos en las próximas 2 horas
Información adicional:
Qnh: 30.26 inHg
METAR del 21-07-2018 a las 06:00 UTC
SEQM 210600Z 14003KT 9999 FEW030 08/08 Q1025 NOSIG RMK A3029=
Viento: dirección 140 grados, velocidad 3 nudos
Visibilidad reinante: 10 km o más
Nubes: Escasas a 3000 pies sobre el nivel del terreno
Temperatura: 8 °C
Rocío: 8 °C
Humedad_relativa: 100%
Presión: 1025 hPa
No se esperan cambios significativos en las próximas 2 horas
Información adicional:
Qnh: 30.29 inHg
METAR del 21-07-2018 a las 05:00 UTC
SEQM 210500Z 10002KT 9999 FEW030 09/09 Q1026 NOSIG RMK A3031=
Viento: dirección 100 grados, velocidad 2 nudos
Visibilidad reinante: 10 km o más
Nubes: Escasas a 3000 pies sobre el nivel del terreno
Temperatura: 9 °C
Rocío: 9 °C
Humedad_relativa: 100%
Presión: 1026 hPa
No se esperan cambios significativos en las próximas 2 horas
Información adicional:
Qnh: 30.31 inHg
METAR del 21-07-2018 a las 04:00 UTC
SEQM 210400Z 10003KT 9999 FEW030 10/09 Q1026 NOSIG RMK A3032=
Viento: dirección 100 grados, velocidad 3 nudos
Visibilidad reinante: 10 km o más
Nubes: Escasas a 3000 pies sobre el nivel del terreno
Temperatura: 10 °C
Rocío: 9 °C
Humedad_relativa: 94%
Presión: 1026 hPa
No se esperan cambios significativos en las próximas 2 horas
Información adicional:
Qnh: 30.32 inHg
METAR del 21-07-2018 a las 03:00 UTC
SEQM 210300Z 03004KT 9999 FEW030 11/11 Q1026 NOSIG RMK A3031=
Viento: dirección 030 grados, velocidad 4 nudos
Visibilidad reinante: 10 km o más
Nubes: Escasas a 3000 pies sobre el nivel del terreno
Temperatura: 11 °C
Rocío: 11 °C
Humedad_relativa: 100%
Presión: 1026 hPa
No se esperan cambios significativos en las próximas 2 horas
Información adicional:
Qnh: 30.31 inHg
METAR del 21-07-2018 a las 02:00 UTC
SEQM 210200Z 06005KT 040V110 9999 FEW023 12/10 Q1025 NOSIG RMK A3028=
Viento: dirección 060 grados, velocidad 5 nudos
Viento con dirección variable entre 040 y 110 grados
Visibilidad reinante: 10 km o más
Nubes: Escasas a 2300 pies sobre el nivel del terreno
Temperatura: 12 °C
Rocío: 10 °C
Humedad_relativa: 88%
Presión: 1025 hPa
No se esperan cambios significativos en las próximas 2 horas
Información adicional:
Qnh: 30.28 inHg
METAR del 21-07-2018 a las 01:00 UTC
SEQM 210100Z 05003KT 9999 SCT030 12/10 Q1024 NOSIG RMK A3026=
Viento: dirección 050 grados, velocidad 3 nudos
Visibilidad reinante: 10 km o más
Nubes: Dispersas a 3000 pies sobre el nivel del terreno
Temperatura: 12 °C
Rocío: 10 °C
Humedad_relativa: 88%
Presión: 1024 hPa
No se esperan cambios significativos en las próximas 2 horas
Información adicional:
Qnh: 30.26 inHg
METAR del 21-07-2018 a las 00:00 UTC
SEQM 210000Z 03007KT 9999 SCT033 13/10 Q1023 NOSIG RMK A3023=
Viento: dirección 030 grados, velocidad 7 nudos
Visibilidad reinante: 10 km o más
Nubes: Dispersas a 3300 pies sobre el nivel del terreno
Temperatura: 13 °C
Rocío: 10 °C
Humedad_relativa: 82%
Presión: 1023 hPa
No se esperan cambios significativos en las próximas 2 horas
Información adicional:
Qnh: 30.23 inHg